sensor_id;sensor_type;location;lat;lon;timestamp;temperature;humidity
64620;DHT22;51029;51.058;13.826;2023-07-02T00:01:08;18.90;99.90
64620;DHT22;51029;51.058;13.826;2023-07-02T00:03:33;18.90;99.90
64620;DHT22;51029;51.058;13.826;2023-07-02T00:05:59;18.90;99.90
64620;DHT22;51029;51.058;13.826;2023-07-02T00:08:24;18.90;99.90
64620;DHT22;51029;51.058;13.826;2023-07-02T00:10:50;18.90;99.90
64620;DHT22;51029;51.058;13.826;2023-07-02T00:13:15;18.90;99.90
64620;DHT22;51029;51.058;13.826;2023-07-02T00:15:41;18.90;99.90
64620;DHT22;51029;51.058;13.826;2023-07-02T00:18:07;18.90;99.90
64620;DHT22;51029;51.058;13.826;2023-07-02T00:20:33;18.90;99.90
64620;DHT22;51029;51.058;13.826;2023-07-02T00:23:05;18.90;99.90
64620;DHT22;51029;51.058;13.826;2023-07-02T00:25:33;19.00;99.90
64620;DHT22;51029;51.058;13.826;2023-07-02T00:27:58;18.90;99.90
64620;DHT22;51029;51.058;13.826;2023-07-02T00:30:23;19.00;99.90
64620;DHT22;51029;51.058;13.826;2023-07-02T00:32:49;19.00;99.90
64620;DHT22;51029;51.058;13.826;2023-07-02T00:35:14;19.00;99.90
64620;DHT22;51029;51.058;13.826;2023-07-02T00:37:40;18.90;99.90
64620;DHT22;51029;51.058;13.826;2023-07-02T00:40:06;19.00;99.90
64620;DHT22;51029;51.058;13.826;2023-07-02T00:42:32;19.00;99.90
64620;DHT22;51029;51.058;13.826;2023-07-02T00:44:57;19.00;99.90
64620;DHT22;51029;51.058;13.826;2023-07-02T00:47:28;19.00;99.90
64620;DHT22;51029;51.058;13.826;2023-07-02T00:49:54;19.00;99.90
64620;DHT22;51029;51.058;13.826;2023-07-02T00:52:20;19.00;99.90
64620;DHT22;51029;51.058;13.826;2023-07-02T00:54:46;19.00;99.90
64620;DHT22;51029;51.058;13.826;2023-07-02T00:57:12;19.00;99.90
64620;DHT22;51029;51.058;13.826;2023-07-02T00:59:37;19.00;99.90
64620;DHT22;51029;51.058;13.826;2023-07-02T01:02:04;19.00;99.90
64620;DHT22;51029;51.058;13.826;2023-07-02T01:04:30;18.90;99.90
64620;DHT22;51029;51.058;13.826;2023-07-02T01:06:56;18.90;99.90
64620;DHT22;51029;51.058;13.826;2023-07-02T01:09:23;18.90;99.90
64620;DHT22;51029;51.058;13.826;2023-07-02T01:11:54;19.00;99.90
64620;DHT22;51029;51.058;13.826;2023-07-02T01:16:53;19.00;99.90
64620;DHT22;51029;51.058;13.826;2023-07-02T01:22:08;19.00;99.90
64620;DHT22;51029;51.058;13.826;2023-07-02T01:24:34;19.00;99.90
64620;DHT22;51029;51.058;13.826;2023-07-02T01:26:59;19.00;99.90
64620;DHT22;51029;51.058;13.826;2023-07-02T01:29:29;19.00;99.90
64620;DHT22;51029;51.058;13.826;2023-07-02T01:31:55;19.00;99.90
64620;DHT22;51029;51.058;13.826;2023-07-02T01:34:21;19.00;99.90
64620;DHT22;51029;51.058;13.826;2023-07-02T01:36:46;19.00;99.90
64620;DHT22;51029;51.058;13.826;2023-07-02T01:39:12;19.00;99.90
64620;DHT22;51029;51.058;13.826;2023-07-02T01:44:09;19.00;99.90
64620;DHT22;51029;51.058;13.826;2023-07-02T01:46:35;18.90;99.90
64620;DHT22;51029;51.058;13.826;2023-07-02T01:49:00;18.90;99.90
64620;DHT22;51029;51.058;13.826;2023-07-02T01:51:26;18.90;99.90
64620;DHT22;51029;51.058;13.826;2023-07-02T01:53:51;18.90;99.90
64620;DHT22;51029;51.058;13.826;2023-07-02T01:56:17;19.00;99.90
64620;DHT22;51029;51.058;13.826;2023-07-02T01:58:42;18.90;99.90
64620;DHT22;51029;51.058;13.826;2023-07-02T02:01:08;18.90;99.90
64620;DHT22;51029;51.058;13.826;2023-07-02T02:03:33;18.90;99.90
64620;DHT22;51029;51.058;13.826;2023-07-02T02:05:59;18.90;99.90
64620;DHT22;51029;51.058;13.826;2023-07-02T02:08:24;18.90;99.90
64620;DHT22;51029;51.058;13.826;2023-07-02T02:10:50;18.90;99.90
64620;DHT22;51029;51.058;13.826;2023-07-02T02:13:15;18.90;99.90
64620;DHT22;51029;51.058;13.826;2023-07-02T02:15:41;18.90;99.90
64620;DHT22;51029;51.058;13.826;2023-07-02T02:18:06;18.90;99.90
64620;DHT22;51029;51.058;13.826;2023-07-02T02:20:32;18.90;99.90
64620;DHT22;51029;51.058;13.826;2023-07-02T02:22:58;18.80;99.90
64620;DHT22;51029;51.058;13.826;2023-07-02T02:25:23;18.80;99.90
64620;DHT22;51029;51.058;13.826;2023-07-02T02:27:49;18.80;99.90
64620;DHT22;51029;51.058;13.826;2023-07-02T02:30:14;18.70;99.90
64620;DHT22;51029;51.058;13.826;2023-07-02T02:32:40;18.70;99.90
64620;DHT22;51029;51.058;13.826;2023-07-02T02:35:06;18.60;99.90
64620;DHT22;51029;51.058;13.826;2023-07-02T02:37:34;18.50;99.90
64620;DHT22;51029;51.058;13.826;2023-07-02T02:40:00;18.50;99.90
64620;DHT22;51029;51.058;13.826;2023-07-02T02:42:25;18.40;99.90
64620;DHT22;51029;51.058;13.826;2023-07-02T02:44:51;18.40;99.90
64620;DHT22;51029;51.058;13.826;2023-07-02T02:47:17;18.40;99.90
64620;DHT22;51029;51.058;13.826;2023-07-02T02:49:42;18.40;99.90
64620;DHT22;51029;51.058;13.826;2023-07-02T02:52:08;18.40;99.90
64620;DHT22;51029;51.058;13.826;2023-07-02T02:54:33;18.50;99.90
64620;DHT22;51029;51.058;13.826;2023-07-02T02:56:59;18.40;99.90
64620;DHT22;51029;51.058;13.826;2023-07-02T02:59:24;18.50;99.90
64620;DHT22;51029;51.058;13.826;2023-07-02T03:01:50;18.40;99.90
64620;DHT22;51029;51.058;13.826;2023-07-02T03:04:16;18.50;99.90
64620;DHT22;51029;51.058;13.826;2023-07-02T03:06:42;18.50;99.90
64620;DHT22;51029;51.058;13.826;2023-07-02T03:09:07;18.50;99.90
64620;DHT22;51029;51.058;13.826;2023-07-02T03:11:33;18.50;99.90
64620;DHT22;51029;51.058;13.826;2023-07-02T03:13:58;18.50;99.90
64620;DHT22;51029;51.058;13.826;2023-07-02T03:16:24;18.50;99.90
64620;DHT22;51029;51.058;13.826;2023-07-02T03:18:49;18.50;99.90
64620;DHT22;51029;51.058;13.826;2023-07-02T03:21:15;18.50;99.90
64620;DHT22;51029;51.058;13.826;2023-07-02T03:23:40;18.50;99.90
64620;DHT22;51029;51.058;13.826;2023-07-02T03:26:06;18.50;99.90
64620;DHT22;51029;51.058;13.826;2023-07-02T03:28:32;18.50;99.90
64620;DHT22;51029;51.058;13.826;2023-07-02T03:30:59;18.50;99.90
64620;DHT22;51029;51.058;13.826;2023-07-02T03:33:24;18.50;99.90
64620;DHT22;51029;51.058;13.826;2023-07-02T03:35:50;18.50;99.90
64620;DHT22;51029;51.058;13.826;2023-07-02T03:38:15;18.50;99.90
64620;DHT22;51029;51.058;13.826;2023-07-02T03:40:41;18.50;99.90
64620;DHT22;51029;51.058;13.826;2023-07-02T03:43:06;18.50;99.90
64620;DHT22;51029;51.058;13.826;2023-07-02T03:45:32;18.50;99.90
64620;DHT22;51029;51.058;13.826;2023-07-02T03:47:57;18.50;99.90
64620;DHT22;51029;51.058;13.826;2023-07-02T03:50:23;18.50;99.90
64620;DHT22;51029;51.058;13.826;2023-07-02T03:52:49;18.50;99.90
64620;DHT22;51029;51.058;13.826;2023-07-02T03:55:14;18.50;99.90
64620;DHT22;51029;51.058;13.826;2023-07-02T03:57:40;18.50;99.90
64620;DHT22;51029;51.058;13.826;2023-07-02T04:00:06;18.50;99.90
64620;DHT22;51029;51.058;13.826;2023-07-02T04:02:32;18.40;99.90
64620;DHT22;51029;51.058;13.826;2023-07-02T04:04:58;18.30;99.90
64620;DHT22;51029;51.058;13.826;2023-07-02T04:07:23;18.30;99.90
64620;DHT22;51029;51.058;13.826;2023-07-02T04:09:49;18.20;99.90
64620;DHT22;51029;51.058;13.826;2023-07-02T04:12:14;18.00;99.90
64620;DHT22;51029;51.058;13.826;2023-07-02T04:14:40;17.90;99.90
64620;DHT22;51029;51.058;13.826;2023-07-02T04:17:05;17.90;99.90
64620;DHT22;51029;51.058;13.826;2023-07-02T04:19:31;18.00;99.90
64620;DHT22;51029;51.058;13.826;2023-07-02T04:21:56;18.00;99.90
64620;DHT22;51029;51.058;13.826;2023-07-02T04:24:22;18.00;99.90
64620;DHT22;51029;51.058;13.826;2023-07-02T04:26:47;17.90;99.90
64620;DHT22;51029;51.058;13.826;2023-07-02T04:29:13;17.90;99.90
64620;DHT22;51029;51.058;13.826;2023-07-02T04:31:38;17.80;99.90
64620;DHT22;51029;51.058;13.826;2023-07-02T04:34:04;17.90;99.90
64620;DHT22;51029;51.058;13.826;2023-07-02T04:36:31;17.90;99.90
64620;DHT22;51029;51.058;13.826;2023-07-02T04:38:56;17.90;99.90
64620;DHT22;51029;51.058;13.826;2023-07-02T04:41:22;17.90;99.90
64620;DHT22;51029;51.058;13.826;2023-07-02T04:43:47;17.80;99.90
64620;DHT22;51029;51.058;13.826;2023-07-02T04:46:13;17.80;99.90
64620;DHT22;51029;51.058;13.826;2023-07-02T04:48:39;17.70;99.90
64620;DHT22;51029;51.058;13.826;2023-07-02T04:51:04;17.70;99.90
64620;DHT22;51029;51.058;13.826;2023-07-02T04:53:30;17.50;99.90
64620;DHT22;51029;51.058;13.826;2023-07-02T04:55:55;17.60;99.90
64620;DHT22;51029;51.058;13.826;2023-07-02T04:58:23;17.50;99.90
64620;DHT22;51029;51.058;13.826;2023-07-02T05:00:48;17.70;99.90
64620;DHT22;51029;51.058;13.826;2023-07-02T05:03:14;17.80;99.90
64620;DHT22;51029;51.058;13.826;2023-07-02T05:05:39;17.80;99.90
64620;DHT22;51029;51.058;13.826;2023-07-02T05:08:05;17.90;99.90
64620;DHT22;51029;51.058;13.826;2023-07-02T05:10:30;17.80;99.90
64620;DHT22;51029;51.058;13.826;2023-07-02T05:12:56;17.80;99.90
64620;DHT22;51029;51.058;13.826;2023-07-02T05:15:23;17.80;99.90
64620;DHT22;51029;51.058;13.826;2023-07-02T05:17:48;17.60;99.90
64620;DHT22;51029;51.058;13.826;2023-07-02T05:20:14;17.60;99.90
64620;DHT22;51029;51.058;13.826;2023-07-02T05:22:40;17.60;99.90
64620;DHT22;51029;51.058;13.826;2023-07-02T05:25:05;17.60;99.90
64620;DHT22;51029;51.058;13.826;2023-07-02T05:27:31;17.60;99.90
64620;DHT22;51029;51.058;13.826;2023-07-02T05:29:57;17.60;99.90
64620;DHT22;51029;51.058;13.826;2023-07-02T05:32:22;17.60;99.90
64620;DHT22;51029;51.058;13.826;2023-07-02T05:34:48;17.60;99.90
64620;DHT22;51029;51.058;13.826;2023-07-02T05:37:13;17.70;99.90
64620;DHT22;51029;51.058;13.826;2023-07-02T05:39:39;17.90;99.90
64620;DHT22;51029;51.058;13.826;2023-07-02T05:42:04;18.00;99.90
64620;DHT22;51029;51.058;13.826;2023-07-02T05:44:30;18.20;99.90
64620;DHT22;51029;51.058;13.826;2023-07-02T05:46:55;18.20;99.90
64620;DHT22;51029;51.058;13.826;2023-07-02T05:49:21;18.20;99.90
64620;DHT22;51029;51.058;13.826;2023-07-02T05:51:46;18.50;99.90
64620;DHT22;51029;51.058;13.826;2023-07-02T05:54:12;18.60;99.90
64620;DHT22;51029;51.058;13.826;2023-07-02T05:56:38;18.80;99.90
64620;DHT22;51029;51.058;13.826;2023-07-02T05:59:03;18.80;99.90
64620;DHT22;51029;51.058;13.826;2023-07-02T06:01:29;19.00;99.90
64620;DHT22;51029;51.058;13.826;2023-07-02T06:03:54;19.10;99.90
64620;DHT22;51029;51.058;13.826;2023-07-02T06:06:21;19.20;99.90
64620;DHT22;51029;51.058;13.826;2023-07-02T06:08:48;19.10;99.90
64620;DHT22;51029;51.058;13.826;2023-07-02T06:11:15;19.10;99.90
64620;DHT22;51029;51.058;13.826;2023-07-02T06:13:40;19.10;99.90
64620;DHT22;51029;51.058;13.826;2023-07-02T06:16:06;19.10;99.90
64620;DHT22;51029;51.058;13.826;2023-07-02T06:18:31;19.10;99.90
64620;DHT22;51029;51.058;13.826;2023-07-02T06:20:57;19.20;99.90
64620;DHT22;51029;51.058;13.826;2023-07-02T06:23:22;19.30;99.90
64620;DHT22;51029;51.058;13.826;2023-07-02T06:25:48;19.30;99.90
64620;DHT22;51029;51.058;13.826;2023-07-02T06:28:13;19.30;99.90
64620;DHT22;51029;51.058;13.826;2023-07-02T06:30:39;19.20;99.90
64620;DHT22;51029;51.058;13.826;2023-07-02T06:33:04;19.30;99.90
64620;DHT22;51029;51.058;13.826;2023-07-02T06:35:30;19.40;99.90
64620;DHT22;51029;51.058;13.826;2023-07-02T06:37:56;19.50;99.90
64620;DHT22;51029;51.058;13.826;2023-07-02T06:40:21;19.60;99.90
64620;DHT22;51029;51.058;13.826;2023-07-02T06:42:50;19.70;99.90
64620;DHT22;51029;51.058;13.826;2023-07-02T06:45:15;19.70;99.90
64620;DHT22;51029;51.058;13.826;2023-07-02T06:47:41;19.70;99.90
64620;DHT22;51029;51.058;13.826;2023-07-02T06:50:06;19.70;99.90
64620;DHT22;51029;51.058;13.826;2023-07-02T06:52:32;19.70;99.90
64620;DHT22;51029;51.058;13.826;2023-07-02T06:54:58;19.50;99.90
64620;DHT22;51029;51.058;13.826;2023-07-02T06:57:23;19.60;99.90
64620;DHT22;51029;51.058;13.826;2023-07-02T06:59:49;19.60;99.90
64620;DHT22;51029;51.058;13.826;2023-07-02T07:02:15;19.70;99.90
64620;DHT22;51029;51.058;13.826;2023-07-02T07:04:41;19.90;99.90
64620;DHT22;51029;51.058;13.826;2023-07-02T07:07:06;20.10;99.90
64620;DHT22;51029;51.058;13.826;2023-07-02T07:09:32;20.30;99.90
64620;DHT22;51029;51.058;13.826;2023-07-02T07:11:57;20.20;99.90
64620;DHT22;51029;51.058;13.826;2023-07-02T07:14:23;20.20;99.90
64620;DHT22;51029;51.058;13.826;2023-07-02T07:16:49;20.40;99.90
64620;DHT22;51029;51.058;13.826;2023-07-02T07:19:15;20.50;99.90
64620;DHT22;51029;51.058;13.826;2023-07-02T07:21:41;20.50;99.90
64620;DHT22;51029;51.058;13.826;2023-07-02T07:24:08;20.50;99.90
64620;DHT22;51029;51.058;13.826;2023-07-02T07:26:33;20.60;99.90
64620;DHT22;51029;51.058;13.826;2023-07-02T07:28:58;20.80;99.90
64620;DHT22;51029;51.058;13.826;2023-07-02T07:31:24;20.70;99.90
64620;DHT22;51029;51.058;13.826;2023-07-02T07:33:50;20.60;99.90
64620;DHT22;51029;51.058;13.826;2023-07-02T07:36:16;20.70;99.90
64620;DHT22;51029;51.058;13.826;2023-07-02T07:38:43;20.90;99.90
64620;DHT22;51029;51.058;13.826;2023-07-02T07:41:09;21.10;99.90
64620;DHT22;51029;51.058;13.826;2023-07-02T07:43:34;21.00;99.90
64620;DHT22;51029;51.058;13.826;2023-07-02T07:46:00;20.70;99.90
64620;DHT22;51029;51.058;13.826;2023-07-02T07:48:25;20.90;99.90
64620;DHT22;51029;51.058;13.826;2023-07-02T07:50:51;20.90;99.90
64620;DHT22;51029;51.058;13.826;2023-07-02T07:53:17;20.70;99.90
64620;DHT22;51029;51.058;13.826;2023-07-02T07:55:42;20.60;99.90
64620;DHT22;51029;51.058;13.826;2023-07-02T07:58:08;20.90;99.90
64620;DHT22;51029;51.058;13.826;2023-07-02T08:00:33;21.30;99.90
64620;DHT22;51029;51.058;13.826;2023-07-02T08:02:59;21.50;99.90
64620;DHT22;51029;51.058;13.826;2023-07-02T08:05:26;21.30;99.90
64620;DHT22;51029;51.058;13.826;2023-07-02T08:07:51;21.30;99.90
64620;DHT22;51029;51.058;13.826;2023-07-02T08:10:18;21.60;99.90
64620;DHT22;51029;51.058;13.826;2023-07-02T08:12:44;21.60;99.90
64620;DHT22;51029;51.058;13.826;2023-07-02T08:15:11;22.10;99.90
64620;DHT22;51029;51.058;13.826;2023-07-02T08:17:36;22.40;99.90
64620;DHT22;51029;51.058;13.826;2023-07-02T08:20:02;22.30;99.90
64620;DHT22;51029;51.058;13.826;2023-07-02T08:22:30;22.40;99.90
64620;DHT22;51029;51.058;13.826;2023-07-02T08:24:55;22.20;99.90
64620;DHT22;51029;51.058;13.826;2023-07-02T08:27:21;22.90;99.90
64620;DHT22;51029;51.058;13.826;2023-07-02T08:29:47;23.30;99.90
64620;DHT22;51029;51.058;13.826;2023-07-02T08:32:12;23.20;99.90
64620;DHT22;51029;51.058;13.826;2023-07-02T08:34:38;22.70;99.90
64620;DHT22;51029;51.058;13.826;2023-07-02T08:37:03;22.70;99.90
64620;DHT22;51029;51.058;13.826;2023-07-02T08:39:29;22.60;99.90
64620;DHT22;51029;51.058;13.826;2023-07-02T08:41:54;22.60;99.90
64620;DHT22;51029;51.058;13.826;2023-07-02T08:44:21;23.10;99.90
64620;DHT22;51029;51.058;13.826;2023-07-02T08:46:47;23.10;99.90
64620;DHT22;51029;51.058;13.826;2023-07-02T08:49:16;22.90;99.90
64620;DHT22;51029;51.058;13.826;2023-07-02T08:51:46;22.50;99.90
64620;DHT22;51029;51.058;13.826;2023-07-02T08:54:12;22.30;99.90
64620;DHT22;51029;51.058;13.826;2023-07-02T08:56:38;22.40;99.90
64620;DHT22;51029;51.058;13.826;2023-07-02T08:59:09;22.40;99.90
64620;DHT22;51029;51.058;13.826;2023-07-02T09:01:47;21.90;99.90
64620;DHT22;51029;51.058;13.826;2023-07-02T09:04:21;21.80;99.90
64620;DHT22;51029;51.058;13.826;2023-07-02T09:06:48;21.80;99.90
64620;DHT22;51029;51.058;13.826;2023-07-02T09:09:14;22.00;99.90
64620;DHT22;51029;51.058;13.826;2023-07-02T09:11:49;21.90;99.90
64620;DHT22;51029;51.058;13.826;2023-07-02T09:14:29;22.10;99.90
64620;DHT22;51029;51.058;13.826;2023-07-02T09:17:08;22.20;99.90
64620;DHT22;51029;51.058;13.826;2023-07-02T09:19:35;22.30;99.90
64620;DHT22;51029;51.058;13.826;2023-07-02T09:22:01;22.20;99.90
64620;DHT22;51029;51.058;13.826;2023-07-02T09:24:29;22.40;99.90
64620;DHT22;51029;51.058;13.826;2023-07-02T09:26:56;22.70;99.90
64620;DHT22;51029;51.058;13.826;2023-07-02T09:29:25;23.20;99.90
64620;DHT22;51029;51.058;13.826;2023-07-02T09:31:55;23.40;99.90
64620;DHT22;51029;51.058;13.826;2023-07-02T09:34:27;23.40;99.90
64620;DHT22;51029;51.058;13.826;2023-07-02T09:36:53;23.70;99.90
64620;DHT22;51029;51.058;13.826;2023-07-02T09:39:20;24.30;99.90
64620;DHT22;51029;51.058;13.826;2023-07-02T09:41:49;24.70;99.90
64620;DHT22;51029;51.058;13.826;2023-07-02T09:44:15;25.20;99.90
64620;DHT22;51029;51.058;13.826;2023-07-02T09:46:53;25.40;99.90
64620;DHT22;51029;51.058;13.826;2023-07-02T09:49:21;25.80;99.90
64620;DHT22;51029;51.058;13.826;2023-07-02T09:51:48;25.90;99.90
64620;DHT22;51029;51.058;13.826;2023-07-02T09:54:14;25.60;99.90
64620;DHT22;51029;51.058;13.826;2023-07-02T09:56:40;25.40;99.90
64620;DHT22;51029;51.058;13.826;2023-07-02T09:59:06;25.20;99.90
64620;DHT22;51029;51.058;13.826;2023-07-02T10:01:31;24.70;99.90
64620;DHT22;51029;51.058;13.826;2023-07-02T10:03:57;24.20;99.90
64620;DHT22;51029;51.058;13.826;2023-07-02T10:06:22;24.20;99.90
64620;DHT22;51029;51.058;13.826;2023-07-02T10:08:55;24.50;99.90
64620;DHT22;51029;51.058;13.826;2023-07-02T10:11:21;25.90;99.90
64620;DHT22;51029;51.058;13.826;2023-07-02T10:13:58;25.60;99.90
64620;DHT22;51029;51.058;13.826;2023-07-02T10:16:24;25.10;99.90
64620;DHT22;51029;51.058;13.826;2023-07-02T10:18:53;25.50;99.90
64620;DHT22;51029;51.058;13.826;2023-07-02T10:21:19;25.70;99.90
64620;DHT22;51029;51.058;13.826;2023-07-02T10:23:44;26.50;99.90
64620;DHT22;51029;51.058;13.826;2023-07-02T10:26:17;26.90;99.90
64620;DHT22;51029;51.058;13.826;2023-07-02T10:28:55;26.50;99.90
64620;DHT22;51029;51.058;13.826;2023-07-02T10:31:21;26.70;99.90
64620;DHT22;51029;51.058;13.826;2023-07-02T10:33:47;27.20;99.90
64620;DHT22;51029;51.058;13.826;2023-07-02T10:36:20;29.20;99.90
64620;DHT22;51029;51.058;13.826;2023-07-02T10:38:47;30.10;99.90
64620;DHT22;51029;51.058;13.826;2023-07-02T10:41:22;29.40;99.90
64620;DHT22;51029;51.058;13.826;2023-07-02T10:43:47;28.40;99.90
64620;DHT22;51029;51.058;13.826;2023-07-02T10:46:21;27.50;99.90
64620;DHT22;51029;51.058;13.826;2023-07-02T10:48:56;26.50;99.90
64620;DHT22;51029;51.058;13.826;2023-07-02T10:51:23;26.50;99.90
64620;DHT22;51029;51.058;13.826;2023-07-02T10:53:57;26.30;99.90
64620;DHT22;51029;51.058;13.826;2023-07-02T10:56:24;26.90;99.90
64620;DHT22;51029;51.058;13.826;2023-07-02T10:58:49;29.40;99.90
64620;DHT22;51029;51.058;13.826;2023-07-02T11:01:27;29.30;99.90
64620;DHT22;51029;51.058;13.826;2023-07-02T11:03:57;28.40;99.50
64620;DHT22;51029;51.058;13.826;2023-07-02T11:06:24;31.40;97.60
64620;DHT22;51029;51.058;13.826;2023-07-02T11:08:50;30.60;97.10
64620;DHT22;51029;51.058;13.826;2023-07-02T11:11:16;31.70;93.20
64620;DHT22;51029;51.058;13.826;2023-07-02T11:13:46;33.00;92.10
64620;DHT22;51029;51.058;13.826;2023-07-02T11:16:27;35.20;81.80
64620;DHT22;51029;51.058;13.826;2023-07-02T11:19:06;38.10;63.40
64620;DHT22;51029;51.058;13.826;2023-07-02T11:21:33;38.50;58.00
64620;DHT22;51029;51.058;13.826;2023-07-02T11:24:31;38.90;50.00
64620;DHT22;51029;51.058;13.826;2023-07-02T11:26:58;40.00;43.70
64620;DHT22;51029;51.058;13.826;2023-07-02T11:29:24;36.60;45.20
64620;DHT22;51029;51.058;13.826;2023-07-02T11:31:50;37.40;45.40
64620;DHT22;51029;51.058;13.826;2023-07-02T11:34:20;34.50;48.10
64620;DHT22;51029;51.058;13.826;2023-07-02T11:36:46;36.50;48.10
64620;DHT22;51029;51.058;13.826;2023-07-02T11:39:13;34.50;48.40
64620;DHT22;51029;51.058;13.826;2023-07-02T11:41:43;32.20;51.10
64620;DHT22;51029;51.058;13.826;2023-07-02T11:44:09;31.20;55.00
64620;DHT22;51029;51.058;13.826;2023-07-02T11:46:34;31.30;56.40
64620;DHT22;51029;51.058;13.826;2023-07-02T11:49:01;31.20;58.10
64620;DHT22;51029;51.058;13.826;2023-07-02T11:51:27;35.70;53.10
64620;DHT22;51029;51.058;13.826;2023-07-02T11:53:53;33.00;51.60
64620;DHT22;51029;51.058;13.826;2023-07-02T11:56:19;31.10;56.40
64620;DHT22;51029;51.058;13.826;2023-07-02T11:58:44;29.70;60.90
64620;DHT22;51029;51.058;13.826;2023-07-02T12:01:10;28.50;67.60
64620;DHT22;51029;51.058;13.826;2023-07-02T12:03:35;27.70;74.30
64620;DHT22;51029;51.058;13.826;2023-07-02T12:06:01;26.80;78.90
64620;DHT22;51029;51.058;13.826;2023-07-02T12:08:26;28.40;84.20
64620;DHT22;51029;51.058;13.826;2023-07-02T12:10:52;34.90;63.80
64620;DHT22;51029;51.058;13.826;2023-07-02T12:13:17;38.80;51.90
64620;DHT22;51029;51.058;13.826;2023-07-02T12:15:43;40.90;43.20
64620;DHT22;51029;51.058;13.826;2023-07-02T12:18:09;38.30;39.70
64620;DHT22;51029;51.058;13.826;2023-07-02T12:20:35;40.80;37.50
64620;DHT22;51029;51.058;13.826;2023-07-02T12:23:00;40.20;37.40
64620;DHT22;51029;51.058;13.826;2023-07-02T12:25:26;43.30;33.10
64620;DHT22;51029;51.058;13.826;2023-07-02T12:27:51;45.10;30.90
64620;DHT22;51029;51.058;13.826;2023-07-02T12:30:17;42.10;30.00
64620;DHT22;51029;51.058;13.826;2023-07-02T12:32:44;40.30;32.00
64620;DHT22;51029;51.058;13.826;2023-07-02T12:35:10;37.00;35.40
64620;DHT22;51029;51.058;13.826;2023-07-02T12:37:42;34.20;41.00
64620;DHT22;51029;51.058;13.826;2023-07-02T12:40:07;33.50;47.00
64620;DHT22;51029;51.058;13.826;2023-07-02T12:42:33;33.40;44.60
64620;DHT22;51029;51.058;13.826;2023-07-02T12:44:59;32.60;47.60
64620;DHT22;51029;51.058;13.826;2023-07-02T12:47:24;35.60;44.50
64620;DHT22;51029;51.058;13.826;2023-07-02T12:49:50;32.50;46.50
64620;DHT22;51029;51.058;13.826;2023-07-02T12:52:15;30.10;51.50
64620;DHT22;51029;51.058;13.826;2023-07-02T12:54:41;30.70;53.40
64620;DHT22;51029;51.058;13.826;2023-07-02T12:57:06;36.00;47.30
64620;DHT22;51029;51.058;13.826;2023-07-02T12:59:32;35.40;43.40
64620;DHT22;51029;51.058;13.826;2023-07-02T13:01:57;34.50;43.20
64620;DHT22;51029;51.058;13.826;2023-07-02T13:04:23;34.10;42.80
64620;DHT22;51029;51.058;13.826;2023-07-02T13:06:48;35.20;41.60
64620;DHT22;51029;51.058;13.826;2023-07-02T13:09:14;36.70;38.70
64620;DHT22;51029;51.058;13.826;2023-07-02T13:11:39;39.40;35.50
64620;DHT22;51029;51.058;13.826;2023-07-02T13:14:05;38.50;31.90
64620;DHT22;51029;51.058;13.826;2023-07-02T13:16:30;38.20;31.60
64620;DHT22;51029;51.058;13.826;2023-07-02T13:18:56;34.40;35.10
64620;DHT22;51029;51.058;13.826;2023-07-02T13:21:22;32.50;39.30
64620;DHT22;51029;51.058;13.826;2023-07-02T13:23:48;29.90;47.20
64620;DHT22;51029;51.058;13.826;2023-07-02T13:26:13;28.80;52.90
64620;DHT22;51029;51.058;13.826;2023-07-02T13:28:38;27.70;58.40
64620;DHT22;51029;51.058;13.826;2023-07-02T13:31:04;27.60;61.60
64620;DHT22;51029;51.058;13.826;2023-07-02T13:33:29;27.90;64.10
64620;DHT22;51029;51.058;13.826;2023-07-02T13:35:56;32.80;57.60
64620;DHT22;51029;51.058;13.826;2023-07-02T13:38:22;37.50;44.90
64620;DHT22;51029;51.058;13.826;2023-07-02T13:40:47;37.40;42.50
64620;DHT22;51029;51.058;13.826;2023-07-02T13:43:13;35.20;44.90
64620;DHT22;51029;51.058;13.826;2023-07-02T13:45:39;35.10;42.30
64620;DHT22;51029;51.058;13.826;2023-07-02T13:48:04;32.30;48.60
64620;DHT22;51029;51.058;13.826;2023-07-02T13:50:30;30.50;52.70
64620;DHT22;51029;51.058;13.826;2023-07-02T13:52:56;30.00;56.20
64620;DHT22;51029;51.058;13.826;2023-07-02T13:55:22;30.70;55.70
64620;DHT22;51029;51.058;13.826;2023-07-02T13:57:53;32.00;55.40
64620;DHT22;51029;51.058;13.826;2023-07-02T14:00:20;33.70;50.80
64620;DHT22;51029;51.058;13.826;2023-07-02T14:02:45;32.50;49.50
64620;DHT22;51029;51.058;13.826;2023-07-02T14:05:11;34.00;47.30
64620;DHT22;51029;51.058;13.826;2023-07-02T14:07:36;33.30;49.00
64620;DHT22;51029;51.058;13.826;2023-07-02T14:10:02;32.00;51.50
64620;DHT22;51029;51.058;13.826;2023-07-02T14:12:28;34.70;49.50
64620;DHT22;51029;51.058;13.826;2023-07-02T14:14:53;32.90;49.00
64620;DHT22;51029;51.058;13.826;2023-07-02T14:17:19;30.80;49.70
64620;DHT22;51029;51.058;13.826;2023-07-02T14:19:45;29.30;50.90
64620;DHT22;51029;51.058;13.826;2023-07-02T14:22:11;28.10;53.90
64620;DHT22;51029;51.058;13.826;2023-07-02T14:24:36;27.60;55.80
64620;DHT22;51029;51.058;13.826;2023-07-02T14:27:02;27.30;58.00
64620;DHT22;51029;51.058;13.826;2023-07-02T14:29:28;27.30;58.60
64620;DHT22;51029;51.058;13.826;2023-07-02T14:31:53;27.10;61.10
64620;DHT22;51029;51.058;13.826;2023-07-02T14:34:19;27.30;62.10
64620;DHT22;51029;51.058;13.826;2023-07-02T14:36:44;26.90;64.20
64620;DHT22;51029;51.058;13.826;2023-07-02T14:39:10;26.70;65.90
64620;DHT22;51029;51.058;13.826;2023-07-02T14:41:35;26.40;64.10
64620;DHT22;51029;51.058;13.826;2023-07-02T14:44:02;26.30;63.80
64620;DHT22;51029;51.058;13.826;2023-07-02T14:46:28;28.10;60.90
64620;DHT22;51029;51.058;13.826;2023-07-02T14:48:54;28.80;60.80
64620;DHT22;51029;51.058;13.826;2023-07-02T14:51:19;32.20;55.90
64620;DHT22;51029;51.058;13.826;2023-07-02T14:53:45;33.40;49.90
64620;DHT22;51029;51.058;13.826;2023-07-02T14:56:11;33.40;48.90
64620;DHT22;51029;51.058;13.826;2023-07-02T14:58:36;30.60;52.50
64620;DHT22;51029;51.058;13.826;2023-07-02T15:01:02;29.50;56.70
64620;DHT22;51029;51.058;13.826;2023-07-02T15:03:28;28.70;57.80
64620;DHT22;51029;51.058;13.826;2023-07-02T15:05:54;27.80;60.30
64620;DHT22;51029;51.058;13.826;2023-07-02T15:08:21;27.10;65.30
64620;DHT22;51029;51.058;13.826;2023-07-02T15:10:49;26.90;68.60
64620;DHT22;51029;51.058;13.826;2023-07-02T15:13:15;26.30;64.00
64620;DHT22;51029;51.058;13.826;2023-07-02T15:15:43;25.50;66.90
64620;DHT22;51029;51.058;13.826;2023-07-02T15:18:09;25.10;69.90